<?xml version="1.0" encoding="UTF-8" standalone="no" ?>
<gpx xmlns="http://www.topografix.com/GPX/1/1" xmlns:xsi="http://www.w3.org/2001/XMLSchema-instance" xsi:schemaLocation="http://www.topografix.com/GPX/1/1 http://www.topografix.com/GPX/1/1/gpx.xsd" version="1.1" creator="VisuGPX - https://www.visugpx.com">
  <metadata>
    <name>Tour Classique</name>
    <desc><![CDATA[6,7 km pour ce tour classique qui approche les 7 km, suivant les enregistrements.]]></desc>
  </metadata>
  <trk>
    <name><![CDATA[Parc Lorient 301017]]></name>
    <trkseg>
      <trkpt lat="44.86541" lon="4.92153">
        <ele>121</ele>
        <time>2017-10-30T13:04:41Z</time>
      </trkpt>
      <trkpt lat="44.86535" lon="4.92145">
        <ele>121</ele>
        <time>2017-10-30T13:05:04Z</time>
      </trkpt>
      <trkpt lat="44.86533" lon="4.92133">
        <ele>121</ele>
        <time>2017-10-30T13:05:20Z</time>
      </trkpt>
      <trkpt lat="44.86532" lon="4.92119">
        <ele>118</ele>
        <time>2017-10-30T13:05:32Z</time>
      </trkpt>
      <trkpt lat="44.86532" lon="4.92105">
        <ele>118</ele>
        <time>2017-10-30T13:05:39Z</time>
      </trkpt>
      <trkpt lat="44.86532" lon="4.92092">
        <ele>117</ele>
        <time>2017-10-30T13:05:46Z</time>
      </trkpt>
      <trkpt lat="44.86531" lon="4.92078">
        <ele>117</ele>
        <time>2017-10-30T13:05:53Z</time>
      </trkpt>
      <trkpt lat="44.86533" lon="4.92065">
        <ele>117</ele>
        <time>2017-10-30T13:06:00Z</time>
      </trkpt>
      <trkpt lat="44.86541" lon="4.92058">
        <ele>117</ele>
        <time>2017-10-30T13:06:07Z</time>
      </trkpt>
      <trkpt lat="44.86551" lon="4.92053">
        <ele>118</ele>
        <time>2017-10-30T13:06:14Z</time>
      </trkpt>
      <trkpt lat="44.8656" lon="4.92049">
        <ele>118</ele>
        <time>2017-10-30T13:06:21Z</time>
      </trkpt>
      <trkpt lat="44.86571" lon="4.92047">
        <ele>117</ele>
        <time>2017-10-30T13:06:29Z</time>
      </trkpt>
      <trkpt lat="44.86581" lon="4.92047">
        <ele>117</ele>
        <time>2017-10-30T13:06:36Z</time>
      </trkpt>
      <trkpt lat="44.86591" lon="4.92047">
        <ele>117</ele>
        <time>2017-10-30T13:06:43Z</time>
      </trkpt>
      <trkpt lat="44.86601" lon="4.92047">
        <ele>118</ele>
        <time>2017-10-30T13:06:50Z</time>
      </trkpt>
      <trkpt lat="44.8661" lon="4.92046">
        <ele>118</ele>
        <time>2017-10-30T13:06:57Z</time>
      </trkpt>
      <trkpt lat="44.86619" lon="4.92047">
        <ele>119</ele>
        <time>2017-10-30T13:07:04Z</time>
      </trkpt>
      <trkpt lat="44.86629" lon="4.92048">
        <ele>119</ele>
        <time>2017-10-30T13:07:13Z</time>
      </trkpt>
      <trkpt lat="44.86641" lon="4.92051">
        <ele>119</ele>
        <time>2017-10-30T13:07:23Z</time>
      </trkpt>
      <trkpt lat="44.86655" lon="4.9205">
        <ele>119</ele>
        <time>2017-10-30T13:07:32Z</time>
      </trkpt>
      <trkpt lat="44.86666" lon="4.9205">
        <ele>119</ele>
        <time>2017-10-30T13:07:39Z</time>
      </trkpt>
      <trkpt lat="44.86677" lon="4.92052">
        <ele>119</ele>
        <time>2017-10-30T13:07:48Z</time>
      </trkpt>
      <trkpt lat="44.86691" lon="4.92051">
        <ele>119</ele>
        <time>2017-10-30T13:08:01Z</time>
      </trkpt>
      <trkpt lat="44.86706" lon="4.92051">
        <ele>119</ele>
        <time>2017-10-30T13:08:10Z</time>
      </trkpt>
      <trkpt lat="44.86718" lon="4.92051">
        <ele>119</ele>
        <time>2017-10-30T13:08:21Z</time>
      </trkpt>
      <trkpt lat="44.86731" lon="4.92051">
        <ele>120</ele>
        <time>2017-10-30T13:08:32Z</time>
      </trkpt>
      <trkpt lat="44.86749" lon="4.92058">
        <ele>120</ele>
        <time>2017-10-30T13:08:39Z</time>
      </trkpt>
      <trkpt lat="44.86758" lon="4.92054">
        <ele>120</ele>
        <time>2017-10-30T13:08:47Z</time>
      </trkpt>
      <trkpt lat="44.86765" lon="4.92045">
        <ele>121</ele>
        <time>2017-10-30T13:08:57Z</time>
      </trkpt>
      <trkpt lat="44.86768" lon="4.92035">
        <ele>121</ele>
        <time>2017-10-30T13:09:08Z</time>
      </trkpt>
      <trkpt lat="44.86765" lon="4.92032">
        <ele>121</ele>
        <time>2017-10-30T13:09:15Z</time>
      </trkpt>
      <trkpt lat="44.86758" lon="4.92024">
        <ele>121</ele>
        <time>2017-10-30T13:09:22Z</time>
      </trkpt>
      <trkpt lat="44.86752" lon="4.92019">
        <ele>121</ele>
        <time>2017-10-30T13:09:30Z</time>
      </trkpt>
      <trkpt lat="44.86747" lon="4.92008">
        <ele>121</ele>
        <time>2017-10-30T13:09:38Z</time>
      </trkpt>
      <trkpt lat="44.8674" lon="4.91991">
        <ele>121</ele>
        <time>2017-10-30T13:09:47Z</time>
      </trkpt>
      <trkpt lat="44.86732" lon="4.91975">
        <ele>120</ele>
        <time>2017-10-30T13:09:58Z</time>
      </trkpt>
      <trkpt lat="44.86722" lon="4.91962">
        <ele>120</ele>
        <time>2017-10-30T13:10:09Z</time>
      </trkpt>
      <trkpt lat="44.86712" lon="4.91941">
        <ele>120</ele>
        <time>2017-10-30T13:10:19Z</time>
      </trkpt>
      <trkpt lat="44.867" lon="4.91923">
        <ele>120</ele>
        <time>2017-10-30T13:10:31Z</time>
      </trkpt>
      <trkpt lat="44.86692" lon="4.91907">
        <ele>120</ele>
        <time>2017-10-30T13:10:41Z</time>
      </trkpt>
      <trkpt lat="44.86682" lon="4.91891">
        <ele>120</ele>
        <time>2017-10-30T13:10:51Z</time>
      </trkpt>
      <trkpt lat="44.86669" lon="4.91867">
        <ele>120</ele>
        <time>2017-10-30T13:11:05Z</time>
      </trkpt>
      <trkpt lat="44.86652" lon="4.91852">
        <ele>120</ele>
        <time>2017-10-30T13:11:19Z</time>
      </trkpt>
      <trkpt lat="44.8663" lon="4.91842">
        <ele>120</ele>
        <time>2017-10-30T13:11:34Z</time>
      </trkpt>
      <trkpt lat="44.8661" lon="4.91836">
        <ele>120</ele>
        <time>2017-10-30T13:11:48Z</time>
      </trkpt>
      <trkpt lat="44.86586" lon="4.91829">
        <ele>120</ele>
        <time>2017-10-30T13:12:01Z</time>
      </trkpt>
      <trkpt lat="44.86562" lon="4.91822">
        <ele>119</ele>
        <time>2017-10-30T13:12:12Z</time>
      </trkpt>
      <trkpt lat="44.86548" lon="4.91816">
        <ele>119</ele>
        <time>2017-10-30T13:12:21Z</time>
      </trkpt>
      <trkpt lat="44.86537" lon="4.91799">
        <ele>120</ele>
        <time>2017-10-30T13:12:32Z</time>
      </trkpt>
      <trkpt lat="44.86528" lon="4.91778">
        <ele>120</ele>
        <time>2017-10-30T13:12:45Z</time>
      </trkpt>
      <trkpt lat="44.86514" lon="4.9176">
        <ele>120</ele>
        <time>2017-10-30T13:12:57Z</time>
      </trkpt>
      <trkpt lat="44.86499" lon="4.91738">
        <ele>120</ele>
        <time>2017-10-30T13:13:09Z</time>
      </trkpt>
      <trkpt lat="44.86486" lon="4.91736">
        <ele>120</ele>
        <time>2017-10-30T13:13:18Z</time>
      </trkpt>
      <trkpt lat="44.86478" lon="4.91731">
        <ele>121</ele>
        <time>2017-10-30T13:13:34Z</time>
      </trkpt>
      <trkpt lat="44.86465" lon="4.9174">
        <ele>121</ele>
        <time>2017-10-30T13:13:50Z</time>
      </trkpt>
      <trkpt lat="44.86447" lon="4.91763">
        <ele>121</ele>
        <time>2017-10-30T13:14:02Z</time>
      </trkpt>
      <trkpt lat="44.86441" lon="4.91783">
        <ele>122</ele>
        <time>2017-10-30T13:14:13Z</time>
      </trkpt>
      <trkpt lat="44.86431" lon="4.91802">
        <ele>123</ele>
        <time>2017-10-30T13:14:23Z</time>
      </trkpt>
      <trkpt lat="44.86415" lon="4.91827">
        <ele>123</ele>
        <time>2017-10-30T13:14:35Z</time>
      </trkpt>
      <trkpt lat="44.86397" lon="4.9183">
        <ele>123</ele>
        <time>2017-10-30T13:14:43Z</time>
      </trkpt>
      <trkpt lat="44.86389" lon="4.91824">
        <ele>124</ele>
        <time>2017-10-30T13:14:50Z</time>
      </trkpt>
      <trkpt lat="44.86382" lon="4.91813">
        <ele>124</ele>
        <time>2017-10-30T13:14:59Z</time>
      </trkpt>
      <trkpt lat="44.86375" lon="4.91796">
        <ele>124</ele>
        <time>2017-10-30T13:15:09Z</time>
      </trkpt>
      <trkpt lat="44.86369" lon="4.91777">
        <ele>125</ele>
        <time>2017-10-30T13:15:19Z</time>
      </trkpt>
      <trkpt lat="44.86364" lon="4.9176">
        <ele>125</ele>
        <time>2017-10-30T13:15:31Z</time>
      </trkpt>
      <trkpt lat="44.86367" lon="4.91748">
        <ele>124</ele>
        <time>2017-10-30T13:15:48Z</time>
      </trkpt>
      <trkpt lat="44.86369" lon="4.91733">
        <ele>125</ele>
        <time>2017-10-30T13:17:36Z</time>
      </trkpt>
      <trkpt lat="44.8636" lon="4.91729">
        <ele>125</ele>
        <time>2017-10-30T13:17:44Z</time>
      </trkpt>
      <trkpt lat="44.86352" lon="4.91722">
        <ele>125</ele>
        <time>2017-10-30T13:17:51Z</time>
      </trkpt>
      <trkpt lat="44.86343" lon="4.9171">
        <ele>125</ele>
        <time>2017-10-30T13:17:59Z</time>
      </trkpt>
      <trkpt lat="44.86334" lon="4.91699">
        <ele>125</ele>
        <time>2017-10-30T13:18:07Z</time>
      </trkpt>
      <trkpt lat="44.86327" lon="4.91686">
        <ele>125</ele>
        <time>2017-10-30T13:18:15Z</time>
      </trkpt>
      <trkpt lat="44.86319" lon="4.91671">
        <ele>125</ele>
        <time>2017-10-30T13:18:22Z</time>
      </trkpt>
      <trkpt lat="44.86312" lon="4.91655">
        <ele>125</ele>
        <time>2017-10-30T13:18:29Z</time>
      </trkpt>
      <trkpt lat="44.86309" lon="4.91637">
        <ele>125</ele>
        <time>2017-10-30T13:18:36Z</time>
      </trkpt>
      <trkpt lat="44.86307" lon="4.91619">
        <ele>125</ele>
        <time>2017-10-30T13:18:43Z</time>
      </trkpt>
      <trkpt lat="44.86304" lon="4.916">
        <ele>125</ele>
        <time>2017-10-30T13:18:50Z</time>
      </trkpt>
      <trkpt lat="44.86303" lon="4.91581">
        <ele>126</ele>
        <time>2017-10-30T13:18:56Z</time>
      </trkpt>
      <trkpt lat="44.86305" lon="4.91565">
        <ele>126</ele>
        <time>2017-10-30T13:19:02Z</time>
      </trkpt>
      <trkpt lat="44.86307" lon="4.91549">
        <ele>126</ele>
        <time>2017-10-30T13:19:08Z</time>
      </trkpt>
      <trkpt lat="44.86308" lon="4.91535">
        <ele>126</ele>
        <time>2017-10-30T13:19:14Z</time>
      </trkpt>
      <trkpt lat="44.86306" lon="4.9152">
        <ele>126</ele>
        <time>2017-10-30T13:19:21Z</time>
      </trkpt>
      <trkpt lat="44.86304" lon="4.91508">
        <ele>126</ele>
        <time>2017-10-30T13:19:27Z</time>
      </trkpt>
      <trkpt lat="44.863" lon="4.91493">
        <ele>125</ele>
        <time>2017-10-30T13:19:37Z</time>
      </trkpt>
      <trkpt lat="44.86298" lon="4.91476">
        <ele>125</ele>
        <time>2017-10-30T13:19:45Z</time>
      </trkpt>
      <trkpt lat="44.86295" lon="4.91457">
        <ele>125</ele>
        <time>2017-10-30T13:19:53Z</time>
      </trkpt>
      <trkpt lat="44.86294" lon="4.91439">
        <ele>125</ele>
        <time>2017-10-30T13:20:00Z</time>
      </trkpt>
      <trkpt lat="44.86292" lon="4.91423">
        <ele>125</ele>
        <time>2017-10-30T13:20:07Z</time>
      </trkpt>
      <trkpt lat="44.86291" lon="4.91404">
        <ele>125</ele>
        <time>2017-10-30T13:20:14Z</time>
      </trkpt>
      <trkpt lat="44.86289" lon="4.9139">
        <ele>125</ele>
        <time>2017-10-30T13:20:21Z</time>
      </trkpt>
      <trkpt lat="44.86288" lon="4.91376">
        <ele>125</ele>
        <time>2017-10-30T13:20:28Z</time>
      </trkpt>
      <trkpt lat="44.86286" lon="4.9136">
        <ele>125</ele>
        <time>2017-10-30T13:20:35Z</time>
      </trkpt>
      <trkpt lat="44.86285" lon="4.91342">
        <ele>125</ele>
        <time>2017-10-30T13:20:42Z</time>
      </trkpt>
      <trkpt lat="44.86284" lon="4.91326">
        <ele>125</ele>
        <time>2017-10-30T13:20:49Z</time>
      </trkpt>
      <trkpt lat="44.86282" lon="4.91312">
        <ele>125</ele>
        <time>2017-10-30T13:20:57Z</time>
      </trkpt>
      <trkpt lat="44.8628" lon="4.91297">
        <ele>125</ele>
        <time>2017-10-30T13:21:05Z</time>
      </trkpt>
      <trkpt lat="44.86277" lon="4.91277">
        <ele>125</ele>
        <time>2017-10-30T13:21:13Z</time>
      </trkpt>
      <trkpt lat="44.86275" lon="4.9126">
        <ele>125</ele>
        <time>2017-10-30T13:21:19Z</time>
      </trkpt>
      <trkpt lat="44.86273" lon="4.91247">
        <ele>125</ele>
        <time>2017-10-30T13:21:25Z</time>
      </trkpt>
      <trkpt lat="44.86269" lon="4.91232">
        <ele>125</ele>
        <time>2017-10-30T13:21:33Z</time>
      </trkpt>
      <trkpt lat="44.86266" lon="4.91217">
        <ele>125</ele>
        <time>2017-10-30T13:21:40Z</time>
      </trkpt>
      <trkpt lat="44.86261" lon="4.91203">
        <ele>125</ele>
        <time>2017-10-30T13:21:48Z</time>
      </trkpt>
      <trkpt lat="44.86258" lon="4.91187">
        <ele>125</ele>
        <time>2017-10-30T13:21:55Z</time>
      </trkpt>
      <trkpt lat="44.86254" lon="4.91172">
        <ele>125</ele>
        <time>2017-10-30T13:22:02Z</time>
      </trkpt>
      <trkpt lat="44.8625" lon="4.91158">
        <ele>124</ele>
        <time>2017-10-30T13:22:10Z</time>
      </trkpt>
      <trkpt lat="44.86245" lon="4.91141">
        <ele>124</ele>
        <time>2017-10-30T13:22:18Z</time>
      </trkpt>
      <trkpt lat="44.86241" lon="4.91126">
        <ele>124</ele>
        <time>2017-10-30T13:22:24Z</time>
      </trkpt>
      <trkpt lat="44.86237" lon="4.91112">
        <ele>125</ele>
        <time>2017-10-30T13:22:30Z</time>
      </trkpt>
      <trkpt lat="44.86232" lon="4.91094">
        <ele>125</ele>
        <time>2017-10-30T13:22:37Z</time>
      </trkpt>
      <trkpt lat="44.86227" lon="4.91081">
        <ele>125</ele>
        <time>2017-10-30T13:22:44Z</time>
      </trkpt>
      <trkpt lat="44.86223" lon="4.91066">
        <ele>125</ele>
        <time>2017-10-30T13:22:51Z</time>
      </trkpt>
      <trkpt lat="44.8622" lon="4.91053">
        <ele>125</ele>
        <time>2017-10-30T13:22:58Z</time>
      </trkpt>
      <trkpt lat="44.8621" lon="4.91039">
        <ele>125</ele>
        <time>2017-10-30T13:23:07Z</time>
      </trkpt>
      <trkpt lat="44.86206" lon="4.91024">
        <ele>124</ele>
        <time>2017-10-30T13:23:15Z</time>
      </trkpt>
      <trkpt lat="44.86202" lon="4.91009">
        <ele>124</ele>
        <time>2017-10-30T13:23:22Z</time>
      </trkpt>
      <trkpt lat="44.86198" lon="4.90995">
        <ele>124</ele>
        <time>2017-10-30T13:23:29Z</time>
      </trkpt>
      <trkpt lat="44.86195" lon="4.90976">
        <ele>124</ele>
        <time>2017-10-30T13:23:36Z</time>
      </trkpt>
      <trkpt lat="44.8619" lon="4.90964">
        <ele>124</ele>
        <time>2017-10-30T13:23:45Z</time>
      </trkpt>
      <trkpt lat="44.86185" lon="4.90947">
        <ele>124</ele>
        <time>2017-10-30T13:23:52Z</time>
      </trkpt>
      <trkpt lat="44.86181" lon="4.90934">
        <ele>124</ele>
        <time>2017-10-30T13:23:58Z</time>
      </trkpt>
      <trkpt lat="44.86178" lon="4.90914">
        <ele>124</ele>
        <time>2017-10-30T13:24:05Z</time>
      </trkpt>
      <trkpt lat="44.86176" lon="4.90899">
        <ele>123</ele>
        <time>2017-10-30T13:24:12Z</time>
      </trkpt>
      <trkpt lat="44.86172" lon="4.90883">
        <ele>123</ele>
        <time>2017-10-30T13:24:20Z</time>
      </trkpt>
      <trkpt lat="44.86168" lon="4.90866">
        <ele>123</ele>
        <time>2017-10-30T13:24:28Z</time>
      </trkpt>
      <trkpt lat="44.86165" lon="4.90851">
        <ele>123</ele>
        <time>2017-10-30T13:24:35Z</time>
      </trkpt>
      <trkpt lat="44.86161" lon="4.90836">
        <ele>123</ele>
        <time>2017-10-30T13:24:42Z</time>
      </trkpt>
      <trkpt lat="44.86156" lon="4.9082">
        <ele>123</ele>
        <time>2017-10-30T13:24:50Z</time>
      </trkpt>
      <trkpt lat="44.86152" lon="4.90805">
        <ele>123</ele>
        <time>2017-10-30T13:24:57Z</time>
      </trkpt>
      <trkpt lat="44.8615" lon="4.90789">
        <ele>123</ele>
        <time>2017-10-30T13:25:04Z</time>
      </trkpt>
      <trkpt lat="44.86146" lon="4.90773">
        <ele>124</ele>
        <time>2017-10-30T13:25:11Z</time>
      </trkpt>
      <trkpt lat="44.86142" lon="4.9076">
        <ele>124</ele>
        <time>2017-10-30T13:25:19Z</time>
      </trkpt>
      <trkpt lat="44.86136" lon="4.90748">
        <ele>124</ele>
        <time>2017-10-30T13:25:26Z</time>
      </trkpt>
      <trkpt lat="44.86131" lon="4.90733">
        <ele>123</ele>
        <time>2017-10-30T13:25:35Z</time>
      </trkpt>
      <trkpt lat="44.86126" lon="4.90712">
        <ele>123</ele>
        <time>2017-10-30T13:25:42Z</time>
      </trkpt>
      <trkpt lat="44.8612" lon="4.90697">
        <ele>123</ele>
        <time>2017-10-30T13:25:52Z</time>
      </trkpt>
      <trkpt lat="44.86116" lon="4.90678">
        <ele>124</ele>
        <time>2017-10-30T13:25:59Z</time>
      </trkpt>
      <trkpt lat="44.86115" lon="4.90659">
        <ele>125</ele>
        <time>2017-10-30T13:26:06Z</time>
      </trkpt>
      <trkpt lat="44.8612" lon="4.90634">
        <ele>125</ele>
        <time>2017-10-30T13:26:13Z</time>
      </trkpt>
      <trkpt lat="44.86126" lon="4.90616">
        <ele>124</ele>
        <time>2017-10-30T13:26:20Z</time>
      </trkpt>
      <trkpt lat="44.86134" lon="4.90605">
        <ele>124</ele>
        <time>2017-10-30T13:26:27Z</time>
      </trkpt>
      <trkpt lat="44.8614" lon="4.90592">
        <ele>124</ele>
        <time>2017-10-30T13:26:33Z</time>
      </trkpt>
      <trkpt lat="44.86146" lon="4.9058">
        <ele>123</ele>
        <time>2017-10-30T13:26:40Z</time>
      </trkpt>
      <trkpt lat="44.86156" lon="4.90565">
        <ele>123</ele>
        <time>2017-10-30T13:26:47Z</time>
      </trkpt>
      <trkpt lat="44.86166" lon="4.90552">
        <ele>124</ele>
        <time>2017-10-30T13:26:57Z</time>
      </trkpt>
      <trkpt lat="44.86173" lon="4.90542">
        <ele>124</ele>
        <time>2017-10-30T13:27:03Z</time>
      </trkpt>
      <trkpt lat="44.86177" lon="4.9053">
        <ele>123</ele>
        <time>2017-10-30T13:27:09Z</time>
      </trkpt>
      <trkpt lat="44.86185" lon="4.90519">
        <ele>123</ele>
        <time>2017-10-30T13:27:16Z</time>
      </trkpt>
      <trkpt lat="44.86191" lon="4.90505">
        <ele>123</ele>
        <time>2017-10-30T13:27:22Z</time>
      </trkpt>
      <trkpt lat="44.86196" lon="4.9049">
        <ele>123</ele>
        <time>2017-10-30T13:27:29Z</time>
      </trkpt>
      <trkpt lat="44.86198" lon="4.90477">
        <ele>123</ele>
        <time>2017-10-30T13:27:36Z</time>
      </trkpt>
      <trkpt lat="44.86203" lon="4.90459">
        <ele>123</ele>
        <time>2017-10-30T13:27:45Z</time>
      </trkpt>
      <trkpt lat="44.86207" lon="4.90441">
        <ele>123</ele>
        <time>2017-10-30T13:27:53Z</time>
      </trkpt>
      <trkpt lat="44.86207" lon="4.90424">
        <ele>123</ele>
        <time>2017-10-30T13:28:01Z</time>
      </trkpt>
      <trkpt lat="44.86207" lon="4.90411">
        <ele>123</ele>
        <time>2017-10-30T13:28:08Z</time>
      </trkpt>
      <trkpt lat="44.86207" lon="4.90398">
        <ele>123</ele>
        <time>2017-10-30T13:28:16Z</time>
      </trkpt>
      <trkpt lat="44.86207" lon="4.9038">
        <ele>123</ele>
        <time>2017-10-30T13:28:25Z</time>
      </trkpt>
      <trkpt lat="44.86204" lon="4.90361">
        <ele>123</ele>
        <time>2017-10-30T13:28:34Z</time>
      </trkpt>
      <trkpt lat="44.86197" lon="4.90344">
        <ele>123</ele>
        <time>2017-10-30T13:28:42Z</time>
      </trkpt>
      <trkpt lat="44.86191" lon="4.90329">
        <ele>123</ele>
        <time>2017-10-30T13:28:48Z</time>
      </trkpt>
      <trkpt lat="44.86187" lon="4.90313">
        <ele>122</ele>
        <time>2017-10-30T13:28:55Z</time>
      </trkpt>
      <trkpt lat="44.8618" lon="4.90298">
        <ele>122</ele>
        <time>2017-10-30T13:29:02Z</time>
      </trkpt>
      <trkpt lat="44.86176" lon="4.90282">
        <ele>122</ele>
        <time>2017-10-30T13:29:10Z</time>
      </trkpt>
      <trkpt lat="44.86169" lon="4.90271">
        <ele>122</ele>
        <time>2017-10-30T13:29:19Z</time>
      </trkpt>
      <trkpt lat="44.86158" lon="4.90251">
        <ele>122</ele>
        <time>2017-10-30T13:29:31Z</time>
      </trkpt>
      <trkpt lat="44.8615" lon="4.90236">
        <ele>122</ele>
        <time>2017-10-30T13:29:39Z</time>
      </trkpt>
      <trkpt lat="44.86143" lon="4.90226">
        <ele>122</ele>
        <time>2017-10-30T13:29:45Z</time>
      </trkpt>
      <trkpt lat="44.86134" lon="4.90205">
        <ele>123</ele>
        <time>2017-10-30T13:29:55Z</time>
      </trkpt>
      <trkpt lat="44.86129" lon="4.90189">
        <ele>123</ele>
        <time>2017-10-30T13:30:04Z</time>
      </trkpt>
      <trkpt lat="44.86121" lon="4.90179">
        <ele>124</ele>
        <time>2017-10-30T13:30:14Z</time>
      </trkpt>
      <trkpt lat="44.86111" lon="4.90163">
        <ele>124</ele>
        <time>2017-10-30T13:30:23Z</time>
      </trkpt>
      <trkpt lat="44.86101" lon="4.9015">
        <ele>124</ele>
        <time>2017-10-30T13:30:31Z</time>
      </trkpt>
      <trkpt lat="44.86093" lon="4.9014">
        <ele>125</ele>
        <time>2017-10-30T13:30:37Z</time>
      </trkpt>
      <trkpt lat="44.86084" lon="4.90131">
        <ele>125</ele>
        <time>2017-10-30T13:30:45Z</time>
      </trkpt>
      <trkpt lat="44.86076" lon="4.90121">
        <ele>124</ele>
        <time>2017-10-30T13:30:52Z</time>
      </trkpt>
      <trkpt lat="44.86065" lon="4.90111">
        <ele>124</ele>
        <time>2017-10-30T13:31:00Z</time>
      </trkpt>
      <trkpt lat="44.86057" lon="4.90104">
        <ele>124</ele>
        <time>2017-10-30T13:31:07Z</time>
      </trkpt>
      <trkpt lat="44.86048" lon="4.90094">
        <ele>124</ele>
        <time>2017-10-30T13:31:16Z</time>
      </trkpt>
      <trkpt lat="44.86037" lon="4.9008">
        <ele>125</ele>
        <time>2017-10-30T13:31:25Z</time>
      </trkpt>
      <trkpt lat="44.86025" lon="4.90069">
        <ele>125</ele>
        <time>2017-10-30T13:31:34Z</time>
      </trkpt>
      <trkpt lat="44.86014" lon="4.90059">
        <ele>125</ele>
        <time>2017-10-30T13:31:43Z</time>
      </trkpt>
      <trkpt lat="44.86003" lon="4.90047">
        <ele>124</ele>
        <time>2017-10-30T13:31:52Z</time>
      </trkpt>
      <trkpt lat="44.85991" lon="4.90034">
        <ele>125</ele>
        <time>2017-10-30T13:31:59Z</time>
      </trkpt>
      <trkpt lat="44.85983" lon="4.90027">
        <ele>126</ele>
        <time>2017-10-30T13:32:08Z</time>
      </trkpt>
      <trkpt lat="44.85977" lon="4.90027">
        <ele>126</ele>
        <time>2017-10-30T13:32:16Z</time>
      </trkpt>
      <trkpt lat="44.8597" lon="4.90032">
        <ele>126</ele>
        <time>2017-10-30T13:32:23Z</time>
      </trkpt>
      <trkpt lat="44.85961" lon="4.90039">
        <ele>126</ele>
        <time>2017-10-30T13:32:30Z</time>
      </trkpt>
      <trkpt lat="44.85967" lon="4.9004">
        <ele>126</ele>
        <time>2017-10-30T13:32:38Z</time>
      </trkpt>
      <trkpt lat="44.85972" lon="4.90045">
        <ele>125</ele>
        <time>2017-10-30T13:32:46Z</time>
      </trkpt>
      <trkpt lat="44.85979" lon="4.90053">
        <ele>125</ele>
        <time>2017-10-30T13:32:58Z</time>
      </trkpt>
      <trkpt lat="44.85992" lon="4.90062">
        <ele>125</ele>
        <time>2017-10-30T13:33:08Z</time>
      </trkpt>
      <trkpt lat="44.86005" lon="4.90075">
        <ele>125</ele>
        <time>2017-10-30T13:33:19Z</time>
      </trkpt>
      <trkpt lat="44.8602" lon="4.90094">
        <ele>126</ele>
        <time>2017-10-30T13:33:33Z</time>
      </trkpt>
      <trkpt lat="44.86033" lon="4.90106">
        <ele>126</ele>
        <time>2017-10-30T13:33:42Z</time>
      </trkpt>
      <trkpt lat="44.86042" lon="4.90117">
        <ele>126</ele>
        <time>2017-10-30T13:33:49Z</time>
      </trkpt>
      <trkpt lat="44.86052" lon="4.90128">
        <ele>126</ele>
        <time>2017-10-30T13:33:59Z</time>
      </trkpt>
      <trkpt lat="44.86066" lon="4.90141">
        <ele>126</ele>
        <time>2017-10-30T13:34:08Z</time>
      </trkpt>
      <trkpt lat="44.86075" lon="4.90154">
        <ele>126</ele>
        <time>2017-10-30T13:34:16Z</time>
      </trkpt>
      <trkpt lat="44.86083" lon="4.90168">
        <ele>127</ele>
        <time>2017-10-30T13:34:25Z</time>
      </trkpt>
      <trkpt lat="44.86094" lon="4.90178">
        <ele>127</ele>
        <time>2017-10-30T13:34:34Z</time>
      </trkpt>
      <trkpt lat="44.86109" lon="4.90189">
        <ele>127</ele>
        <time>2017-10-30T13:34:41Z</time>
      </trkpt>
      <trkpt lat="44.86118" lon="4.90202">
        <ele>127</ele>
        <time>2017-10-30T13:34:48Z</time>
      </trkpt>
      <trkpt lat="44.86127" lon="4.90214">
        <ele>128</ele>
        <time>2017-10-30T13:34:55Z</time>
      </trkpt>
      <trkpt lat="44.86136" lon="4.90227">
        <ele>128</ele>
        <time>2017-10-30T13:35:05Z</time>
      </trkpt>
      <trkpt lat="44.86146" lon="4.9025">
        <ele>128</ele>
        <time>2017-10-30T13:35:20Z</time>
      </trkpt>
      <trkpt lat="44.86155" lon="4.90275">
        <ele>127</ele>
        <time>2017-10-30T13:35:33Z</time>
      </trkpt>
      <trkpt lat="44.86164" lon="4.903">
        <ele>128</ele>
        <time>2017-10-30T13:35:46Z</time>
      </trkpt>
      <trkpt lat="44.86171" lon="4.90332">
        <ele>128</ele>
        <time>2017-10-30T13:35:58Z</time>
      </trkpt>
      <trkpt lat="44.86177" lon="4.9036">
        <ele>128</ele>
        <time>2017-10-30T13:36:11Z</time>
      </trkpt>
      <trkpt lat="44.86181" lon="4.90384">
        <ele>128</ele>
        <time>2017-10-30T13:36:21Z</time>
      </trkpt>
      <trkpt lat="44.8618" lon="4.90409">
        <ele>127</ele>
        <time>2017-10-30T13:36:28Z</time>
      </trkpt>
      <trkpt lat="44.86179" lon="4.90428">
        <ele>128</ele>
        <time>2017-10-30T13:36:38Z</time>
      </trkpt>
      <trkpt lat="44.86179" lon="4.90451">
        <ele>128</ele>
        <time>2017-10-30T13:36:51Z</time>
      </trkpt>
      <trkpt lat="44.86172" lon="4.90477">
        <ele>128</ele>
        <time>2017-10-30T13:37:03Z</time>
      </trkpt>
      <trkpt lat="44.86166" lon="4.90498">
        <ele>128</ele>
        <time>2017-10-30T13:37:13Z</time>
      </trkpt>
      <trkpt lat="44.86157" lon="4.90513">
        <ele>128</ele>
        <time>2017-10-30T13:37:20Z</time>
      </trkpt>
      <trkpt lat="44.86149" lon="4.90528">
        <ele>129</ele>
        <time>2017-10-30T13:37:28Z</time>
      </trkpt>
      <trkpt lat="44.86142" lon="4.90548">
        <ele>129</ele>
        <time>2017-10-30T13:37:36Z</time>
      </trkpt>
      <trkpt lat="44.86134" lon="4.9056">
        <ele>129</ele>
        <time>2017-10-30T13:37:44Z</time>
      </trkpt>
      <trkpt lat="44.86124" lon="4.90574">
        <ele>129</ele>
        <time>2017-10-30T13:37:52Z</time>
      </trkpt>
      <trkpt lat="44.86116" lon="4.90586">
        <ele>130</ele>
        <time>2017-10-30T13:37:59Z</time>
      </trkpt>
      <trkpt lat="44.86105" lon="4.90596">
        <ele>130</ele>
        <time>2017-10-30T13:38:05Z</time>
      </trkpt>
      <trkpt lat="44.86096" lon="4.90606">
        <ele>130</ele>
        <time>2017-10-30T13:38:12Z</time>
      </trkpt>
      <trkpt lat="44.86089" lon="4.90613">
        <ele>130</ele>
        <time>2017-10-30T13:38:24Z</time>
      </trkpt>
      <trkpt lat="44.86083" lon="4.90621">
        <ele>130</ele>
        <time>2017-10-30T13:38:34Z</time>
      </trkpt>
      <trkpt lat="44.86084" lon="4.90635">
        <ele>130</ele>
        <time>2017-10-30T13:38:42Z</time>
      </trkpt>
      <trkpt lat="44.86088" lon="4.90649">
        <ele>130</ele>
        <time>2017-10-30T13:38:51Z</time>
      </trkpt>
      <trkpt lat="44.86091" lon="4.90663">
        <ele>131</ele>
        <time>2017-10-30T13:38:59Z</time>
      </trkpt>
      <trkpt lat="44.86094" lon="4.90681">
        <ele>131</ele>
        <time>2017-10-30T13:39:06Z</time>
      </trkpt>
      <trkpt lat="44.861" lon="4.90694">
        <ele>131</ele>
        <time>2017-10-30T13:39:16Z</time>
      </trkpt>
      <trkpt lat="44.86106" lon="4.90711">
        <ele>131</ele>
        <time>2017-10-30T13:39:26Z</time>
      </trkpt>
      <trkpt lat="44.86112" lon="4.90731">
        <ele>131</ele>
        <time>2017-10-30T13:39:36Z</time>
      </trkpt>
      <trkpt lat="44.86117" lon="4.9075">
        <ele>131</ele>
        <time>2017-10-30T13:39:46Z</time>
      </trkpt>
      <trkpt lat="44.86123" lon="4.90768">
        <ele>131</ele>
        <time>2017-10-30T13:39:55Z</time>
      </trkpt>
      <trkpt lat="44.86129" lon="4.90793">
        <ele>131</ele>
        <time>2017-10-30T13:40:07Z</time>
      </trkpt>
      <trkpt lat="44.86135" lon="4.9082">
        <ele>131</ele>
        <time>2017-10-30T13:40:22Z</time>
      </trkpt>
      <trkpt lat="44.86143" lon="4.90849">
        <ele>132</ele>
        <time>2017-10-30T13:40:37Z</time>
      </trkpt>
      <trkpt lat="44.86147" lon="4.90882">
        <ele>132</ele>
        <time>2017-10-30T13:40:50Z</time>
      </trkpt>
      <trkpt lat="44.86152" lon="4.90902">
        <ele>132</ele>
        <time>2017-10-30T13:41:00Z</time>
      </trkpt>
      <trkpt lat="44.86159" lon="4.9092">
        <ele>133</ele>
        <time>2017-10-30T13:41:09Z</time>
      </trkpt>
      <trkpt lat="44.86163" lon="4.90943">
        <ele>133</ele>
        <time>2017-10-30T13:41:18Z</time>
      </trkpt>
      <trkpt lat="44.86167" lon="4.9096">
        <ele>133</ele>
        <time>2017-10-30T13:41:26Z</time>
      </trkpt>
      <trkpt lat="44.8617" lon="4.90975">
        <ele>133</ele>
        <time>2017-10-30T13:41:34Z</time>
      </trkpt>
      <trkpt lat="44.86174" lon="4.90995">
        <ele>133</ele>
        <time>2017-10-30T13:41:43Z</time>
      </trkpt>
      <trkpt lat="44.86178" lon="4.91017">
        <ele>134</ele>
        <time>2017-10-30T13:41:54Z</time>
      </trkpt>
      <trkpt lat="44.86183" lon="4.91037">
        <ele>134</ele>
        <time>2017-10-30T13:42:06Z</time>
      </trkpt>
      <trkpt lat="44.8619" lon="4.91065">
        <ele>134</ele>
        <time>2017-10-30T13:42:16Z</time>
      </trkpt>
      <trkpt lat="44.86198" lon="4.91085">
        <ele>134</ele>
        <time>2017-10-30T13:42:25Z</time>
      </trkpt>
      <trkpt lat="44.86204" lon="4.91102">
        <ele>135</ele>
        <time>2017-10-30T13:42:34Z</time>
      </trkpt>
      <trkpt lat="44.86208" lon="4.91121">
        <ele>135</ele>
        <time>2017-10-30T13:42:42Z</time>
      </trkpt>
      <trkpt lat="44.86211" lon="4.9114">
        <ele>135</ele>
        <time>2017-10-30T13:42:49Z</time>
      </trkpt>
      <trkpt lat="44.86217" lon="4.91157">
        <ele>135</ele>
        <time>2017-10-30T13:42:57Z</time>
      </trkpt>
      <trkpt lat="44.86222" lon="4.91174">
        <ele>135</ele>
        <time>2017-10-30T13:43:05Z</time>
      </trkpt>
      <trkpt lat="44.86226" lon="4.91189">
        <ele>136</ele>
        <time>2017-10-30T13:43:12Z</time>
      </trkpt>
      <trkpt lat="44.86232" lon="4.91209">
        <ele>136</ele>
        <time>2017-10-30T13:43:20Z</time>
      </trkpt>
      <trkpt lat="44.86235" lon="4.91225">
        <ele>136</ele>
        <time>2017-10-30T13:43:27Z</time>
      </trkpt>
      <trkpt lat="44.86239" lon="4.9124">
        <ele>136</ele>
        <time>2017-10-30T13:43:35Z</time>
      </trkpt>
      <trkpt lat="44.86242" lon="4.91258">
        <ele>136</ele>
        <time>2017-10-30T13:43:43Z</time>
      </trkpt>
      <trkpt lat="44.86245" lon="4.91275">
        <ele>136</ele>
        <time>2017-10-30T13:43:51Z</time>
      </trkpt>
      <trkpt lat="44.86247" lon="4.91293">
        <ele>136</ele>
        <time>2017-10-30T13:43:59Z</time>
      </trkpt>
      <trkpt lat="44.86249" lon="4.9131">
        <ele>136</ele>
        <time>2017-10-30T13:44:07Z</time>
      </trkpt>
      <trkpt lat="44.86251" lon="4.91326">
        <ele>136</ele>
        <time>2017-10-30T13:44:14Z</time>
      </trkpt>
      <trkpt lat="44.86253" lon="4.91346">
        <ele>136</ele>
        <time>2017-10-30T13:44:24Z</time>
      </trkpt>
      <trkpt lat="44.86254" lon="4.91363">
        <ele>136</ele>
        <time>2017-10-30T13:44:31Z</time>
      </trkpt>
      <trkpt lat="44.86256" lon="4.91379">
        <ele>136</ele>
        <time>2017-10-30T13:44:39Z</time>
      </trkpt>
      <trkpt lat="44.86257" lon="4.91397">
        <ele>137</ele>
        <time>2017-10-30T13:44:47Z</time>
      </trkpt>
      <trkpt lat="44.8626" lon="4.91418">
        <ele>137</ele>
        <time>2017-10-30T13:44:55Z</time>
      </trkpt>
      <trkpt lat="44.86261" lon="4.91436">
        <ele>136</ele>
        <time>2017-10-30T13:45:03Z</time>
      </trkpt>
      <trkpt lat="44.86264" lon="4.91453">
        <ele>136</ele>
        <time>2017-10-30T13:45:10Z</time>
      </trkpt>
      <trkpt lat="44.86265" lon="4.91469">
        <ele>136</ele>
        <time>2017-10-30T13:45:18Z</time>
      </trkpt>
      <trkpt lat="44.86266" lon="4.91487">
        <ele>136</ele>
        <time>2017-10-30T13:45:25Z</time>
      </trkpt>
      <trkpt lat="44.86268" lon="4.91501">
        <ele>136</ele>
        <time>2017-10-30T13:45:31Z</time>
      </trkpt>
      <trkpt lat="44.8627" lon="4.91516">
        <ele>137</ele>
        <time>2017-10-30T13:45:38Z</time>
      </trkpt>
      <trkpt lat="44.86272" lon="4.91532">
        <ele>137</ele>
        <time>2017-10-30T13:45:45Z</time>
      </trkpt>
      <trkpt lat="44.86276" lon="4.91548">
        <ele>137</ele>
        <time>2017-10-30T13:45:52Z</time>
      </trkpt>
      <trkpt lat="44.86279" lon="4.91562">
        <ele>137</ele>
        <time>2017-10-30T13:45:58Z</time>
      </trkpt>
      <trkpt lat="44.86281" lon="4.91575">
        <ele>137</ele>
        <time>2017-10-30T13:46:04Z</time>
      </trkpt>
      <trkpt lat="44.86282" lon="4.91588">
        <ele>137</ele>
        <time>2017-10-30T13:46:10Z</time>
      </trkpt>
      <trkpt lat="44.86283" lon="4.91602">
        <ele>136</ele>
        <time>2017-10-30T13:46:17Z</time>
      </trkpt>
      <trkpt lat="44.86285" lon="4.91616">
        <ele>136</ele>
        <time>2017-10-30T13:46:23Z</time>
      </trkpt>
      <trkpt lat="44.86286" lon="4.91628">
        <ele>136</ele>
        <time>2017-10-30T13:46:29Z</time>
      </trkpt>
      <trkpt lat="44.8629" lon="4.91643">
        <ele>136</ele>
        <time>2017-10-30T13:46:36Z</time>
      </trkpt>
      <trkpt lat="44.86292" lon="4.91657">
        <ele>136</ele>
        <time>2017-10-30T13:46:43Z</time>
      </trkpt>
      <trkpt lat="44.86296" lon="4.91671">
        <ele>136</ele>
        <time>2017-10-30T13:46:50Z</time>
      </trkpt>
      <trkpt lat="44.86298" lon="4.91686">
        <ele>136</ele>
        <time>2017-10-30T13:46:57Z</time>
      </trkpt>
      <trkpt lat="44.86298" lon="4.917">
        <ele>136</ele>
        <time>2017-10-30T13:47:05Z</time>
      </trkpt>
      <trkpt lat="44.86296" lon="4.91714">
        <ele>136</ele>
        <time>2017-10-30T13:47:13Z</time>
      </trkpt>
      <trkpt lat="44.86294" lon="4.9173">
        <ele>136</ele>
        <time>2017-10-30T13:47:22Z</time>
      </trkpt>
      <trkpt lat="44.86293" lon="4.91752">
        <ele>136</ele>
        <time>2017-10-30T13:47:31Z</time>
      </trkpt>
      <trkpt lat="44.86289" lon="4.91768">
        <ele>136</ele>
        <time>2017-10-30T13:47:39Z</time>
      </trkpt>
      <trkpt lat="44.86285" lon="4.91785">
        <ele>136</ele>
        <time>2017-10-30T13:47:47Z</time>
      </trkpt>
      <trkpt lat="44.8628" lon="4.91801">
        <ele>136</ele>
        <time>2017-10-30T13:47:53Z</time>
      </trkpt>
      <trkpt lat="44.86275" lon="4.91818">
        <ele>136</ele>
        <time>2017-10-30T13:47:59Z</time>
      </trkpt>
      <trkpt lat="44.8627" lon="4.91833">
        <ele>135</ele>
        <time>2017-10-30T13:48:05Z</time>
      </trkpt>
      <trkpt lat="44.86266" lon="4.91846">
        <ele>135</ele>
        <time>2017-10-30T13:48:12Z</time>
      </trkpt>
      <trkpt lat="44.86262" lon="4.91861">
        <ele>135</ele>
        <time>2017-10-30T13:48:19Z</time>
      </trkpt>
      <trkpt lat="44.86256" lon="4.91875">
        <ele>135</ele>
        <time>2017-10-30T13:48:25Z</time>
      </trkpt>
      <trkpt lat="44.86251" lon="4.91889">
        <ele>135</ele>
        <time>2017-10-30T13:48:31Z</time>
      </trkpt>
      <trkpt lat="44.86245" lon="4.91904">
        <ele>135</ele>
        <time>2017-10-30T13:48:38Z</time>
      </trkpt>
      <trkpt lat="44.86242" lon="4.91917">
        <ele>135</ele>
        <time>2017-10-30T13:48:44Z</time>
      </trkpt>
      <trkpt lat="44.86238" lon="4.91931">
        <ele>135</ele>
        <time>2017-10-30T13:48:51Z</time>
      </trkpt>
      <trkpt lat="44.86234" lon="4.91946">
        <ele>135</ele>
        <time>2017-10-30T13:48:58Z</time>
      </trkpt>
      <trkpt lat="44.8623" lon="4.91958">
        <ele>135</ele>
        <time>2017-10-30T13:49:03Z</time>
      </trkpt>
      <trkpt lat="44.86228" lon="4.91971">
        <ele>135</ele>
        <time>2017-10-30T13:49:10Z</time>
      </trkpt>
      <trkpt lat="44.86223" lon="4.91986">
        <ele>135</ele>
        <time>2017-10-30T13:49:17Z</time>
      </trkpt>
      <trkpt lat="44.86218" lon="4.92001">
        <ele>135</ele>
        <time>2017-10-30T13:49:24Z</time>
      </trkpt>
      <trkpt lat="44.86213" lon="4.92018">
        <ele>136</ele>
        <time>2017-10-30T13:49:31Z</time>
      </trkpt>
      <trkpt lat="44.86209" lon="4.9203">
        <ele>136</ele>
        <time>2017-10-30T13:49:37Z</time>
      </trkpt>
      <trkpt lat="44.86205" lon="4.92044">
        <ele>136</ele>
        <time>2017-10-30T13:49:44Z</time>
      </trkpt>
      <trkpt lat="44.86201" lon="4.92058">
        <ele>136</ele>
        <time>2017-10-30T13:49:50Z</time>
      </trkpt>
      <trkpt lat="44.86197" lon="4.92072">
        <ele>135</ele>
        <time>2017-10-30T13:49:57Z</time>
      </trkpt>
      <trkpt lat="44.86193" lon="4.92086">
        <ele>135</ele>
        <time>2017-10-30T13:50:05Z</time>
      </trkpt>
      <trkpt lat="44.86191" lon="4.92098">
        <ele>136</ele>
        <time>2017-10-30T13:50:18Z</time>
      </trkpt>
      <trkpt lat="44.86193" lon="4.92112">
        <ele>136</ele>
        <time>2017-10-30T13:50:57Z</time>
      </trkpt>
      <trkpt lat="44.86191" lon="4.92124">
        <ele>135</ele>
        <time>2017-10-30T13:51:25Z</time>
      </trkpt>
      <trkpt lat="44.86185" lon="4.92131">
        <ele>135</ele>
        <time>2017-10-30T13:51:42Z</time>
      </trkpt>
      <trkpt lat="44.86175" lon="4.92142">
        <ele>134</ele>
        <time>2017-10-30T13:55:30Z</time>
      </trkpt>
      <trkpt lat="44.86174" lon="4.92156">
        <ele>134</ele>
        <time>2017-10-30T13:55:41Z</time>
      </trkpt>
      <trkpt lat="44.8617" lon="4.92171">
        <ele>134</ele>
        <time>2017-10-30T13:55:50Z</time>
      </trkpt>
      <trkpt lat="44.86166" lon="4.92184">
        <ele>134</ele>
        <time>2017-10-30T13:55:57Z</time>
      </trkpt>
      <trkpt lat="44.86158" lon="4.92198">
        <ele>134</ele>
        <time>2017-10-30T13:56:04Z</time>
      </trkpt>
      <trkpt lat="44.86154" lon="4.92211">
        <ele>134</ele>
        <time>2017-10-30T13:56:12Z</time>
      </trkpt>
      <trkpt lat="44.86148" lon="4.92224">
        <ele>134</ele>
        <time>2017-10-30T13:56:19Z</time>
      </trkpt>
      <trkpt lat="44.86141" lon="4.92235">
        <ele>134</ele>
        <time>2017-10-30T13:56:26Z</time>
      </trkpt>
      <trkpt lat="44.86133" lon="4.92248">
        <ele>134</ele>
        <time>2017-10-30T13:56:34Z</time>
      </trkpt>
      <trkpt lat="44.86126" lon="4.92258">
        <ele>134</ele>
        <time>2017-10-30T13:56:42Z</time>
      </trkpt>
      <trkpt lat="44.8612" lon="4.92269">
        <ele>135</ele>
        <time>2017-10-30T13:56:49Z</time>
      </trkpt>
      <trkpt lat="44.86112" lon="4.92279">
        <ele>135</ele>
        <time>2017-10-30T13:56:56Z</time>
      </trkpt>
      <trkpt lat="44.86105" lon="4.9229">
        <ele>135</ele>
        <time>2017-10-30T13:57:03Z</time>
      </trkpt>
      <trkpt lat="44.86095" lon="4.923">
        <ele>135</ele>
        <time>2017-10-30T13:57:10Z</time>
      </trkpt>
      <trkpt lat="44.86086" lon="4.92305">
        <ele>135</ele>
        <time>2017-10-30T13:57:17Z</time>
      </trkpt>
      <trkpt lat="44.86077" lon="4.92306">
        <ele>135</ele>
        <time>2017-10-30T13:57:23Z</time>
      </trkpt>
      <trkpt lat="44.86066" lon="4.92304">
        <ele>135</ele>
        <time>2017-10-30T13:57:30Z</time>
      </trkpt>
      <trkpt lat="44.86056" lon="4.923">
        <ele>135</ele>
        <time>2017-10-30T13:57:37Z</time>
      </trkpt>
      <trkpt lat="44.86045" lon="4.92294">
        <ele>135</ele>
        <time>2017-10-30T13:57:44Z</time>
      </trkpt>
      <trkpt lat="44.86037" lon="4.9229">
        <ele>135</ele>
        <time>2017-10-30T13:57:50Z</time>
      </trkpt>
      <trkpt lat="44.86027" lon="4.92286">
        <ele>134</ele>
        <time>2017-10-30T13:57:57Z</time>
      </trkpt>
      <trkpt lat="44.86016" lon="4.92283">
        <ele>134</ele>
        <time>2017-10-30T13:58:04Z</time>
      </trkpt>
      <trkpt lat="44.86007" lon="4.92281">
        <ele>134</ele>
        <time>2017-10-30T13:58:10Z</time>
      </trkpt>
      <trkpt lat="44.85997" lon="4.92278">
        <ele>134</ele>
        <time>2017-10-30T13:58:16Z</time>
      </trkpt>
      <trkpt lat="44.85987" lon="4.92278">
        <ele>134</ele>
        <time>2017-10-30T13:58:23Z</time>
      </trkpt>
      <trkpt lat="44.85977" lon="4.92278">
        <ele>134</ele>
        <time>2017-10-30T13:58:30Z</time>
      </trkpt>
      <trkpt lat="44.85968" lon="4.92273">
        <ele>134</ele>
        <time>2017-10-30T13:58:37Z</time>
      </trkpt>
      <trkpt lat="44.85959" lon="4.92268">
        <ele>134</ele>
        <time>2017-10-30T13:58:44Z</time>
      </trkpt>
      <trkpt lat="44.8595" lon="4.92264">
        <ele>135</ele>
        <time>2017-10-30T13:58:52Z</time>
      </trkpt>
      <trkpt lat="44.8594" lon="4.92259">
        <ele>135</ele>
        <time>2017-10-30T13:59:00Z</time>
      </trkpt>
      <trkpt lat="44.85931" lon="4.92254">
        <ele>135</ele>
        <time>2017-10-30T13:59:07Z</time>
      </trkpt>
      <trkpt lat="44.85921" lon="4.92249">
        <ele>135</ele>
        <time>2017-10-30T13:59:14Z</time>
      </trkpt>
      <trkpt lat="44.8591" lon="4.92243">
        <ele>135</ele>
        <time>2017-10-30T13:59:20Z</time>
      </trkpt>
      <trkpt lat="44.859" lon="4.92239">
        <ele>135</ele>
        <time>2017-10-30T13:59:26Z</time>
      </trkpt>
      <trkpt lat="44.8589" lon="4.92235">
        <ele>135</ele>
        <time>2017-10-30T13:59:33Z</time>
      </trkpt>
      <trkpt lat="44.85881" lon="4.9223">
        <ele>135</ele>
        <time>2017-10-30T13:59:40Z</time>
      </trkpt>
      <trkpt lat="44.85871" lon="4.92227">
        <ele>135</ele>
        <time>2017-10-30T13:59:48Z</time>
      </trkpt>
      <trkpt lat="44.8586" lon="4.92229">
        <ele>135</ele>
        <time>2017-10-30T14:00:00Z</time>
      </trkpt>
      <trkpt lat="44.85848" lon="4.92232">
        <ele>135</ele>
        <time>2017-10-30T14:00:08Z</time>
      </trkpt>
      <trkpt lat="44.85837" lon="4.92236">
        <ele>135</ele>
        <time>2017-10-30T14:00:15Z</time>
      </trkpt>
      <trkpt lat="44.85825" lon="4.92242">
        <ele>136</ele>
        <time>2017-10-30T14:00:23Z</time>
      </trkpt>
      <trkpt lat="44.85814" lon="4.92247">
        <ele>137</ele>
        <time>2017-10-30T14:00:34Z</time>
      </trkpt>
      <trkpt lat="44.85807" lon="4.92259">
        <ele>137</ele>
        <time>2017-10-30T14:00:42Z</time>
      </trkpt>
      <trkpt lat="44.85803" lon="4.92272">
        <ele>137</ele>
        <time>2017-10-30T14:00:49Z</time>
      </trkpt>
      <trkpt lat="44.858" lon="4.92287">
        <ele>137</ele>
        <time>2017-10-30T14:00:56Z</time>
      </trkpt>
      <trkpt lat="44.85797" lon="4.92302">
        <ele>137</ele>
        <time>2017-10-30T14:01:03Z</time>
      </trkpt>
      <trkpt lat="44.85794" lon="4.92316">
        <ele>137</ele>
        <time>2017-10-30T14:01:10Z</time>
      </trkpt>
      <trkpt lat="44.85791" lon="4.92329">
        <ele>138</ele>
        <time>2017-10-30T14:01:16Z</time>
      </trkpt>
      <trkpt lat="44.85787" lon="4.92344">
        <ele>138</ele>
        <time>2017-10-30T14:01:23Z</time>
      </trkpt>
      <trkpt lat="44.85782" lon="4.92356">
        <ele>138</ele>
        <time>2017-10-30T14:01:30Z</time>
      </trkpt>
      <trkpt lat="44.85779" lon="4.9237">
        <ele>137</ele>
        <time>2017-10-30T14:01:37Z</time>
      </trkpt>
      <trkpt lat="44.85774" lon="4.92381">
        <ele>137</ele>
        <time>2017-10-30T14:01:44Z</time>
      </trkpt>
      <trkpt lat="44.85768" lon="4.92393">
        <ele>137</ele>
        <time>2017-10-30T14:01:51Z</time>
      </trkpt>
      <trkpt lat="44.85763" lon="4.92402">
        <ele>137</ele>
        <time>2017-10-30T14:01:58Z</time>
      </trkpt>
      <trkpt lat="44.85756" lon="4.92409">
        <ele>137</ele>
        <time>2017-10-30T14:02:06Z</time>
      </trkpt>
      <trkpt lat="44.85752" lon="4.92419">
        <ele>138</ele>
        <time>2017-10-30T14:02:17Z</time>
      </trkpt>
      <trkpt lat="44.85755" lon="4.92432">
        <ele>138</ele>
        <time>2017-10-30T14:02:25Z</time>
      </trkpt>
      <trkpt lat="44.85763" lon="4.92429">
        <ele>138</ele>
        <time>2017-10-30T14:02:32Z</time>
      </trkpt>
      <trkpt lat="44.85771" lon="4.92423">
        <ele>138</ele>
        <time>2017-10-30T14:02:41Z</time>
      </trkpt>
      <trkpt lat="44.85779" lon="4.92416">
        <ele>138</ele>
        <time>2017-10-30T14:02:50Z</time>
      </trkpt>
      <trkpt lat="44.85784" lon="4.92404">
        <ele>138</ele>
        <time>2017-10-30T14:02:59Z</time>
      </trkpt>
      <trkpt lat="44.8579" lon="4.92391">
        <ele>138</ele>
        <time>2017-10-30T14:03:07Z</time>
      </trkpt>
      <trkpt lat="44.85795" lon="4.92378">
        <ele>138</ele>
        <time>2017-10-30T14:03:16Z</time>
      </trkpt>
      <trkpt lat="44.858" lon="4.92364">
        <ele>138</ele>
        <time>2017-10-30T14:03:23Z</time>
      </trkpt>
      <trkpt lat="44.85804" lon="4.9235">
        <ele>138</ele>
        <time>2017-10-30T14:03:30Z</time>
      </trkpt>
      <trkpt lat="44.8581" lon="4.92336">
        <ele>138</ele>
        <time>2017-10-30T14:03:37Z</time>
      </trkpt>
      <trkpt lat="44.85813" lon="4.92319">
        <ele>138</ele>
        <time>2017-10-30T14:03:46Z</time>
      </trkpt>
      <trkpt lat="44.85815" lon="4.92304">
        <ele>137</ele>
        <time>2017-10-30T14:03:53Z</time>
      </trkpt>
      <trkpt lat="44.85818" lon="4.92288">
        <ele>137</ele>
        <time>2017-10-30T14:04:00Z</time>
      </trkpt>
      <trkpt lat="44.85822" lon="4.92275">
        <ele>138</ele>
        <time>2017-10-30T14:04:06Z</time>
      </trkpt>
      <trkpt lat="44.85829" lon="4.92264">
        <ele>138</ele>
        <time>2017-10-30T14:04:13Z</time>
      </trkpt>
      <trkpt lat="44.85837" lon="4.92255">
        <ele>138</ele>
        <time>2017-10-30T14:04:20Z</time>
      </trkpt>
      <trkpt lat="44.85844" lon="4.92248">
        <ele>137</ele>
        <time>2017-10-30T14:04:27Z</time>
      </trkpt>
      <trkpt lat="44.85856" lon="4.92245">
        <ele>137</ele>
        <time>2017-10-30T14:04:39Z</time>
      </trkpt>
      <trkpt lat="44.85872" lon="4.92246">
        <ele>137</ele>
        <time>2017-10-30T14:04:52Z</time>
      </trkpt>
      <trkpt lat="44.85887" lon="4.9225">
        <ele>136</ele>
        <time>2017-10-30T14:05:02Z</time>
      </trkpt>
      <trkpt lat="44.85903" lon="4.92255">
        <ele>136</ele>
        <time>2017-10-30T14:05:11Z</time>
      </trkpt>
      <trkpt lat="44.85916" lon="4.92262">
        <ele>136</ele>
        <time>2017-10-30T14:05:19Z</time>
      </trkpt>
      <trkpt lat="44.85927" lon="4.92268">
        <ele>136</ele>
        <time>2017-10-30T14:05:27Z</time>
      </trkpt>
      <trkpt lat="44.85936" lon="4.92274">
        <ele>136</ele>
        <time>2017-10-30T14:05:34Z</time>
      </trkpt>
      <trkpt lat="44.85948" lon="4.92283">
        <ele>136</ele>
        <time>2017-10-30T14:05:43Z</time>
      </trkpt>
      <trkpt lat="44.85959" lon="4.92289">
        <ele>136</ele>
        <time>2017-10-30T14:05:50Z</time>
      </trkpt>
      <trkpt lat="44.85969" lon="4.92297">
        <ele>136</ele>
        <time>2017-10-30T14:05:57Z</time>
      </trkpt>
      <trkpt lat="44.8598" lon="4.92301">
        <ele>136</ele>
        <time>2017-10-30T14:06:04Z</time>
      </trkpt>
      <trkpt lat="44.8599" lon="4.92305">
        <ele>136</ele>
        <time>2017-10-30T14:06:11Z</time>
      </trkpt>
      <trkpt lat="44.86001" lon="4.92306">
        <ele>136</ele>
        <time>2017-10-30T14:06:19Z</time>
      </trkpt>
      <trkpt lat="44.86013" lon="4.92306">
        <ele>136</ele>
        <time>2017-10-30T14:06:29Z</time>
      </trkpt>
      <trkpt lat="44.86028" lon="4.92309">
        <ele>135</ele>
        <time>2017-10-30T14:06:38Z</time>
      </trkpt>
      <trkpt lat="44.86039" lon="4.92315">
        <ele>135</ele>
        <time>2017-10-30T14:06:45Z</time>
      </trkpt>
      <trkpt lat="44.86049" lon="4.92322">
        <ele>136</ele>
        <time>2017-10-30T14:06:52Z</time>
      </trkpt>
      <trkpt lat="44.8606" lon="4.92328">
        <ele>136</ele>
        <time>2017-10-30T14:07:00Z</time>
      </trkpt>
      <trkpt lat="44.8607" lon="4.92333">
        <ele>136</ele>
        <time>2017-10-30T14:07:09Z</time>
      </trkpt>
      <trkpt lat="44.86081" lon="4.92334">
        <ele>136</ele>
        <time>2017-10-30T14:07:17Z</time>
      </trkpt>
      <trkpt lat="44.8609" lon="4.92325">
        <ele>136</ele>
        <time>2017-10-30T14:07:26Z</time>
      </trkpt>
      <trkpt lat="44.86098" lon="4.92314">
        <ele>136</ele>
        <time>2017-10-30T14:07:34Z</time>
      </trkpt>
      <trkpt lat="44.86106" lon="4.92304">
        <ele>135</ele>
        <time>2017-10-30T14:07:42Z</time>
      </trkpt>
      <trkpt lat="44.86115" lon="4.92293">
        <ele>135</ele>
        <time>2017-10-30T14:07:50Z</time>
      </trkpt>
      <trkpt lat="44.86127" lon="4.92283">
        <ele>135</ele>
        <time>2017-10-30T14:07:58Z</time>
      </trkpt>
      <trkpt lat="44.86134" lon="4.92274">
        <ele>135</ele>
        <time>2017-10-30T14:08:07Z</time>
      </trkpt>
      <trkpt lat="44.86142" lon="4.9226">
        <ele>135</ele>
        <time>2017-10-30T14:08:17Z</time>
      </trkpt>
      <trkpt lat="44.86151" lon="4.92248">
        <ele>135</ele>
        <time>2017-10-30T14:08:24Z</time>
      </trkpt>
      <trkpt lat="44.86158" lon="4.92237">
        <ele>135</ele>
        <time>2017-10-30T14:08:31Z</time>
      </trkpt>
      <trkpt lat="44.86163" lon="4.92225">
        <ele>135</ele>
        <time>2017-10-30T14:08:38Z</time>
      </trkpt>
      <trkpt lat="44.86167" lon="4.92211">
        <ele>135</ele>
        <time>2017-10-30T14:08:46Z</time>
      </trkpt>
      <trkpt lat="44.86174" lon="4.92195">
        <ele>135</ele>
        <time>2017-10-30T14:08:56Z</time>
      </trkpt>
      <trkpt lat="44.86179" lon="4.92178">
        <ele>135</ele>
        <time>2017-10-30T14:09:03Z</time>
      </trkpt>
      <trkpt lat="44.86185" lon="4.92162">
        <ele>135</ele>
        <time>2017-10-30T14:09:11Z</time>
      </trkpt>
      <trkpt lat="44.86191" lon="4.92148">
        <ele>135</ele>
        <time>2017-10-30T14:09:19Z</time>
      </trkpt>
      <trkpt lat="44.86194" lon="4.9213">
        <ele>134</ele>
        <time>2017-10-30T14:09:30Z</time>
      </trkpt>
      <trkpt lat="44.862" lon="4.92112">
        <ele>135</ele>
        <time>2017-10-30T14:09:38Z</time>
      </trkpt>
      <trkpt lat="44.86204" lon="4.92096">
        <ele>135</ele>
        <time>2017-10-30T14:09:49Z</time>
      </trkpt>
      <trkpt lat="44.86208" lon="4.92079">
        <ele>134</ele>
        <time>2017-10-30T14:09:57Z</time>
      </trkpt>
      <trkpt lat="44.86212" lon="4.92062">
        <ele>134</ele>
        <time>2017-10-30T14:10:05Z</time>
      </trkpt>
      <trkpt lat="44.86217" lon="4.92046">
        <ele>134</ele>
        <time>2017-10-30T14:10:13Z</time>
      </trkpt>
      <trkpt lat="44.8622" lon="4.92028">
        <ele>134</ele>
        <time>2017-10-30T14:10:24Z</time>
      </trkpt>
      <trkpt lat="44.86228" lon="4.9201">
        <ele>134</ele>
        <time>2017-10-30T14:10:33Z</time>
      </trkpt>
      <trkpt lat="44.86232" lon="4.91994">
        <ele>133</ele>
        <time>2017-10-30T14:10:39Z</time>
      </trkpt>
      <trkpt lat="44.86237" lon="4.91979">
        <ele>134</ele>
        <time>2017-10-30T14:10:48Z</time>
      </trkpt>
      <trkpt lat="44.86241" lon="4.91963">
        <ele>133</ele>
        <time>2017-10-30T14:11:02Z</time>
      </trkpt>
      <trkpt lat="44.86246" lon="4.91944">
        <ele>133</ele>
        <time>2017-10-30T14:11:14Z</time>
      </trkpt>
      <trkpt lat="44.86253" lon="4.9192">
        <ele>133</ele>
        <time>2017-10-30T14:11:23Z</time>
      </trkpt>
      <trkpt lat="44.86259" lon="4.91903">
        <ele>133</ele>
        <time>2017-10-30T14:11:31Z</time>
      </trkpt>
      <trkpt lat="44.86264" lon="4.91887">
        <ele>133</ele>
        <time>2017-10-30T14:11:40Z</time>
      </trkpt>
      <trkpt lat="44.86268" lon="4.91869">
        <ele>133</ele>
        <time>2017-10-30T14:11:48Z</time>
      </trkpt>
      <trkpt lat="44.86276" lon="4.91851">
        <ele>133</ele>
        <time>2017-10-30T14:11:57Z</time>
      </trkpt>
      <trkpt lat="44.8628" lon="4.91836">
        <ele>133</ele>
        <time>2017-10-30T14:12:04Z</time>
      </trkpt>
      <trkpt lat="44.86285" lon="4.91821">
        <ele>133</ele>
        <time>2017-10-30T14:12:12Z</time>
      </trkpt>
      <trkpt lat="44.8629" lon="4.91802">
        <ele>133</ele>
        <time>2017-10-30T14:12:22Z</time>
      </trkpt>
      <trkpt lat="44.86294" lon="4.91781">
        <ele>132</ele>
        <time>2017-10-30T14:12:35Z</time>
      </trkpt>
      <trkpt lat="44.86297" lon="4.9176">
        <ele>132</ele>
        <time>2017-10-30T14:12:48Z</time>
      </trkpt>
      <trkpt lat="44.86301" lon="4.91735">
        <ele>132</ele>
        <time>2017-10-30T14:13:00Z</time>
      </trkpt>
      <trkpt lat="44.8631" lon="4.91717">
        <ele>132</ele>
        <time>2017-10-30T14:13:13Z</time>
      </trkpt>
      <trkpt lat="44.86329" lon="4.91713">
        <ele>132</ele>
        <time>2017-10-30T14:13:23Z</time>
      </trkpt>
      <trkpt lat="44.86341" lon="4.91726">
        <ele>132</ele>
        <time>2017-10-30T14:13:35Z</time>
      </trkpt>
      <trkpt lat="44.86349" lon="4.91743">
        <ele>133</ele>
        <time>2017-10-30T14:13:49Z</time>
      </trkpt>
      <trkpt lat="44.86349" lon="4.9177">
        <ele>133</ele>
        <time>2017-10-30T14:14:05Z</time>
      </trkpt>
      <trkpt lat="44.86354" lon="4.918">
        <ele>133</ele>
        <time>2017-10-30T14:14:21Z</time>
      </trkpt>
      <trkpt lat="44.86357" lon="4.91828">
        <ele>133</ele>
        <time>2017-10-30T14:14:32Z</time>
      </trkpt>
      <trkpt lat="44.86361" lon="4.9185">
        <ele>133</ele>
        <time>2017-10-30T14:14:43Z</time>
      </trkpt>
      <trkpt lat="44.86364" lon="4.91874">
        <ele>133</ele>
        <time>2017-10-30T14:14:54Z</time>
      </trkpt>
      <trkpt lat="44.86362" lon="4.91901">
        <ele>133</ele>
        <time>2017-10-30T14:15:08Z</time>
      </trkpt>
      <trkpt lat="44.86358" lon="4.91926">
        <ele>133</ele>
        <time>2017-10-30T14:15:22Z</time>
      </trkpt>
      <trkpt lat="44.86354" lon="4.91953">
        <ele>133</ele>
        <time>2017-10-30T14:15:35Z</time>
      </trkpt>
      <trkpt lat="44.86348" lon="4.91979">
        <ele>134</ele>
        <time>2017-10-30T14:15:47Z</time>
      </trkpt>
      <trkpt lat="44.86343" lon="4.92007">
        <ele>134</ele>
        <time>2017-10-30T14:15:57Z</time>
      </trkpt>
      <trkpt lat="44.86338" lon="4.92029">
        <ele>134</ele>
        <time>2017-10-30T14:16:05Z</time>
      </trkpt>
      <trkpt lat="44.86335" lon="4.92045">
        <ele>134</ele>
        <time>2017-10-30T14:16:14Z</time>
      </trkpt>
      <trkpt lat="44.86333" lon="4.92064">
        <ele>134</ele>
        <time>2017-10-30T14:16:27Z</time>
      </trkpt>
      <trkpt lat="44.86329" lon="4.92092">
        <ele>134</ele>
        <time>2017-10-30T14:16:37Z</time>
      </trkpt>
      <trkpt lat="44.86326" lon="4.9211">
        <ele>134</ele>
        <time>2017-10-30T14:16:44Z</time>
      </trkpt>
      <trkpt lat="44.86327" lon="4.92128">
        <ele>134</ele>
        <time>2017-10-30T14:16:53Z</time>
      </trkpt>
      <trkpt lat="44.86331" lon="4.92144">
        <ele>134</ele>
        <time>2017-10-30T14:17:02Z</time>
      </trkpt>
      <trkpt lat="44.86338" lon="4.92157">
        <ele>135</ele>
        <time>2017-10-30T14:17:10Z</time>
      </trkpt>
      <trkpt lat="44.86345" lon="4.92169">
        <ele>135</ele>
        <time>2017-10-30T14:17:17Z</time>
      </trkpt>
      <trkpt lat="44.86354" lon="4.9218">
        <ele>135</ele>
        <time>2017-10-30T14:17:26Z</time>
      </trkpt>
      <trkpt lat="44.86363" lon="4.9219">
        <ele>135</ele>
        <time>2017-10-30T14:17:36Z</time>
      </trkpt>
      <trkpt lat="44.86373" lon="4.92203">
        <ele>135</ele>
        <time>2017-10-30T14:17:45Z</time>
      </trkpt>
      <trkpt lat="44.86382" lon="4.92217">
        <ele>135</ele>
        <time>2017-10-30T14:17:53Z</time>
      </trkpt>
      <trkpt lat="44.86392" lon="4.92227">
        <ele>135</ele>
        <time>2017-10-30T14:18:01Z</time>
      </trkpt>
      <trkpt lat="44.86402" lon="4.92238">
        <ele>136</ele>
        <time>2017-10-30T14:18:11Z</time>
      </trkpt>
      <trkpt lat="44.86413" lon="4.92239">
        <ele>137</ele>
        <time>2017-10-30T14:18:20Z</time>
      </trkpt>
      <trkpt lat="44.86422" lon="4.92233">
        <ele>137</ele>
        <time>2017-10-30T14:18:27Z</time>
      </trkpt>
      <trkpt lat="44.8643" lon="4.92222">
        <ele>137</ele>
        <time>2017-10-30T14:18:35Z</time>
      </trkpt>
      <trkpt lat="44.86439" lon="4.92209">
        <ele>137</ele>
        <time>2017-10-30T14:18:43Z</time>
      </trkpt>
      <trkpt lat="44.86449" lon="4.92196">
        <ele>137</ele>
        <time>2017-10-30T14:18:50Z</time>
      </trkpt>
      <trkpt lat="44.86457" lon="4.92186">
        <ele>137</ele>
        <time>2017-10-30T14:18:57Z</time>
      </trkpt>
      <trkpt lat="44.86466" lon="4.92179">
        <ele>137</ele>
        <time>2017-10-30T14:19:03Z</time>
      </trkpt>
      <trkpt lat="44.86476" lon="4.92173">
        <ele>137</ele>
        <time>2017-10-30T14:19:10Z</time>
      </trkpt>
      <trkpt lat="44.86486" lon="4.92174">
        <ele>136</ele>
        <time>2017-10-30T14:19:17Z</time>
      </trkpt>
      <trkpt lat="44.86496" lon="4.92168">
        <ele>136</ele>
        <time>2017-10-30T14:19:23Z</time>
      </trkpt>
      <trkpt lat="44.86504" lon="4.92161">
        <ele>136</ele>
        <time>2017-10-30T14:19:30Z</time>
      </trkpt>
      <trkpt lat="44.86514" lon="4.92158">
        <ele>136</ele>
        <time>2017-10-30T14:19:37Z</time>
      </trkpt>
      <trkpt lat="44.86523" lon="4.92156">
        <ele>136</ele>
        <time>2017-10-30T14:19:44Z</time>
      </trkpt>
      <trkpt lat="44.86532" lon="4.92153">
        <ele>136</ele>
        <time>2017-10-30T14:19:53Z</time>
      </trkpt>
    </trkseg>
  </trk>
</gpx>